Time;durP1;ratioP1;P1;durP2;ratioP2;P2;SDS_P1;SDS_P2;PMS_P1;PMS_P2;Temp;Humidity;BMP_temperature;BMP_pressure;BME280_temperature;BME280_humidity;BME280_pressure;Samples;Min_cycle;Max_cycle;Signal;HPM_P1;HPM_P2
2022/08/20 00:00:39;;;;;;;9.75;8.50;;;;;;;21.71;74.61;100451.41;1800593;79;20801;-96
2022/08/20 00:03:28;;;;;;;10.40;9.35;;;;;;;21.70;74.64;100448.93;1799926;78;20884;-94
2022/08/20 00:06:02;;;;;;;11.08;9.48;;;;;;;21.70;74.80;100451.59;1801069;78;21217;-92
2022/08/20 00:08:29;;;;;;;13.40;11.22;;;;;;;21.70;74.92;100455.60;1801281;77;20891;-95
2022/08/20 00:10:58;;;;;;;12.85;11.55;;;;;;;21.70;75.16;100458.27;1798197;77;20915;-93
2022/08/20 00:13:31;;;;;;;12.80;8.95;;;;;;;21.71;75.27;100458.59;1800571;78;20915;-93
2022/08/20 00:15:58;;;;;;;12.23;9.13;;;;;;;21.74;75.75;100452.90;1801388;78;20843;-91
2022/08/20 00:18:25;;;;;;;9.85;9.05;;;;;;;21.74;76.10;100454.23;1772449;78;23627;-94
2022/08/20 00:20:54;;;;;;;9.90;8.28;;;;;;;21.75;76.38;100460.43;1799570;77;20875;-94
2022/08/20 00:23:22;;;;;;;9.33;8.48;;;;;;;21.72;76.55;100468.25;1800861;77;21460;-94
2022/08/20 00:25:49;;;;;;;12.05;9.03;;;;;;;21.68;76.59;100476.28;1798878;77;20919;-96
2022/08/20 00:28:16;;;;;;;8.53;7.72;;;;;;;21.64;76.62;100481.63;1798813;77;20951;-94
2022/08/20 00:30:44;;;;;;;8.50;7.53;;;;;;;21.63;76.58;100478.60;1798489;77;21112;-96
2022/08/20 00:33:16;;;;;;;9.80;7.42;;;;;;;21.62;76.68;100483.63;1799109;77;20910;-95
2022/08/20 00:35:47;;;;;;;9.55;8.35;;;;;;;21.60;76.89;100485.11;1798274;79;20986;-94
2022/08/20 00:38:14;;;;;;;8.60;7.80;;;;;;;21.60;77.16;100485.11;1798735;78;20939;-94
2022/08/20 00:40:52;;;;;;;8.55;7.75;;;;;;;21.60;77.25;100495.78;1769692;79;20871;-96
2022/08/20 00:43:33;;;;;;;11.60;7.55;;;;;;;21.57;77.24;100496.13;1798107;77;21074;-95
2022/08/20 00:46:09;;;;;;;8.60;6.58;;;;;;;21.51;77.29;100502.95;1799313;78;20824;-95
2022/08/20 00:48:40;;;;;;;7.95;6.62;;;;;;;21.45;77.48;100505.45;1798688;78;20965;-94
2022/08/20 00:51:13;;;;;;;8.23;5.83;;;;;;;21.38;77.63;100513.25;1800700;77;20939;-95
2022/08/20 00:53:40;;;;;;;6.73;6.03;;;;;;;21.30;77.73;100501.27;1801147;77;20974;-94
2022/08/20 00:56:08;;;;;;;7.05;6.45;;;;;;;21.23;77.76;100496.22;1771988;77;22518;-94
2022/08/20 00:58:36;;;;;;;7.00;6.37;;;;;;;21.16;77.91;100494.72;1819883;77;20880;-95
2022/08/20 01:01:05;;;;;;;7.53;6.15;;;;;;;21.10;78.29;100498.06;1822871;78;21022;-94
2022/08/20 01:03:34;;;;;;;6.22;5.30;;;;;;;21.06;78.39;100504.71;1823346;78;21179;-94
2022/08/20 01:06:01;;;;;;;6.15;5.65;;;;;;;21.00;78.33;100506.19;1824230;78;20845;-94
2022/08/20 01:08:30;;;;;;;7.42;6.65;;;;;;;20.96;78.52;100504.83;1824627;78;21803;-94
2022/08/20 01:11:08;;;;;;;6.35;5.75;;;;;;;20.91;78.41;100505.33;1824894;78;20861;-95
2022/08/20 01:13:33;;;;;;;6.90;6.20;;;;;;;20.86;78.59;100499.66;1824560;77;20939;-94
2022/08/20 01:16:00;;;;;;;6.53;5.83;;;;;;;20.81;78.86;100493.98;1819946;77;20808;-93
2022/08/20 01:18:31;;;;;;;6.37;5.80;;;;;;;20.80;79.17;100500.30;1793251;78;20872;-92
2022/08/20 01:21:00;;;;;;;6.58;5.90;;;;;;;20.78;79.38;100496.12;1824627;78;21156;-94
2022/08/20 01:23:52;;;;;;;6.40;5.80;;;;;;;20.78;79.39;100500.12;1824785;78;20911;-94
2022/08/20 01:26:24;;;;;;;8.23;5.87;;;;;;;20.76;79.50;100498.11;1823878;78;20904;-95
2022/08/20 01:29:07;;;;;;;7.80;5.72;;;;;;;20.74;79.41;100504.09;1822926;78;20908;-95
2022/08/20 01:31:36;;;;;;;6.50;5.40;;;;;;;20.73;79.50;100503.78;1822841;78;20951;-95
2022/08/20 01:34:05;;;;;;;6.53;6.03;;;;;;;20.72;79.54;100503.42;1822427;78;21175;-94
2022/08/20 01:36:47;;;;;;;7.05;5.75;;;;;;;20.68;79.57;100497.09;1822968;78;21436;-93
2022/08/20 01:39:17;;;;;;;9.78;6.28;;;;;;;20.66;79.56;100501.75;1823496;78;21385;-95
2022/08/20 01:42:29;;;;;;;7.42;5.53;;;;;;;20.64;79.69;100506.41;1792300;78;21428;-93
2022/08/20 01:45:00;;;;;;;9.30;5.75;;;;;;;20.61;79.52;100502.73;1823187;78;20884;-94
2022/08/20 01:47:34;;;;;;;8.00;6.45;;;;;;;20.58;79.75;100500.88;1823587;78;21266;-93
2022/08/20 01:50:12;;;;;;;8.40;6.12;;;;;;;20.56;80.02;100499.66;1824706;78;20915;-93
2022/08/20 01:52:50;;;;;;;8.73;6.55;;;;;;;20.54;80.14;100504.82;1823990;78;21400;-95
2022/08/20 01:55:17;;;;;;;10.20;6.42;;;;;;;20.52;80.32;100512.13;1822807;77;20907;-92
2022/08/20 01:57:44;;;;;;;9.30;6.15;;;;;;;20.49;80.60;100506.13;1825888;77;20923;-94
2022/08/20 02:00:15;;;;;;;10.08;7.70;;;;;;;20.49;80.70;100506.13;1827765;77;20753;-94
2022/08/20 02:02:42;;;;;;;12.68;7.95;;;;;;;20.49;80.78;100508.80;1800704;78;21420;-94
2022/08/20 02:05:10;;;;;;;10.63;9.28;;;;;;;20.48;80.79;100512.47;1826098;78;20923;-95
2022/08/20 02:07:37;;;;;;;11.93;9.10;;;;;;;20.45;80.89;100508.80;1826463;78;20931;-95
2022/08/20 02:10:09;;;;;;;16.62;10.28;;;;;;;20.41;81.03;100508.78;1826742;78;20958;-95
2022/08/20 02:12:38;;;;;;;16.40;11.25;;;;;;;20.39;81.23;100507.27;1827696;78;21946;-95
2022/08/20 02:15:09;;;;;;;15.98;10.80;;;;;;;20.39;81.43;100504.60;1828532;78;20903;-93
2022/08/20 02:17:36;;;;;;;12.53;10.48;;;;;;;20.38;81.56;100499.75;1828530;77;20919;-94
2022/08/20 02:20:14;;;;;;;19.12;12.03;;;;;;;20.39;81.59;100512.59;1828120;77;21071;-94
2022/08/20 02:22:50;;;;;;;17.52;11.40;;;;;;;20.38;81.70;100513.06;1828536;77;20903;-92
2022/08/20 02:25:19;;;;;;;16.25;11.03;;;;;;;20.37;81.92;100522.06;1826330;78;21140;-93
2022/08/20 02:27:47;;;;;;;19.62;12.47;;;;;;;20.36;81.83;100520.88;1828414;78;20911;-96
2022/08/20 02:30:21;;;;;;;21.05;13.53;;;;;;;20.34;81.71;100523.70;1828625;77;20990;-93
2022/08/20 02:32:49;;;;;;;14.10;12.03;;;;;;;20.34;81.92;100522.87;1828105;78;20855;-94
2022/08/20 02:35:18;;;;;;;16.57;12.50;;;;;;;20.34;82.17;100526.36;1828592;77;20900;-94
2022/08/20 02:37:45;;;;;;;18.87;12.78;;;;;;;20.36;82.26;100534.20;1828045;77;21107;-95
2022/08/20 02:40:16;;;;;;;19.37;14.23;;;;;;;20.40;82.31;100538.22;1827391;78;21330;-94
2022/08/20 02:42:43;;;;;;;23.18;13.20;;;;;;;20.40;82.06;100536.39;1827208;78;21096;-95
2022/08/20 02:45:13;;;;;;;22.55;13.80;;;;;;;20.40;81.83;100535.56;1826889;78;20887;-94
2022/08/20 02:47:44;;;;;;;;;;;;;;;20.41;81.55;100538.55;1824792;77;20927;-93
2022/08/20 02:50:18;;;;;;;25.57;14.60;;;;;;;20.40;81.05;100534.23;1796794;78;21371;-96
2022/08/20 02:52:47;;;;;;;26.33;14.93;;;;;;;20.37;81.10;100538.55;1796328;78;20836;-96
2022/08/20 02:55:14;;;;;;;26.02;16.67;;;;;;;20.37;81.08;100539.38;1795467;78;20911;-96
2022/08/20 02:57:43;;;;;;;33.55;16.48;;;;;;;20.35;80.53;100541.87;1796300;78;20937;-96
2022/08/20 03:00:13;;;;;;;23.50;15.95;;;;;;;20.34;80.52;100545.51;1796589;80;20855;-96
2022/08/20 03:02:40;;;;;;;37.15;17.20;;;;;;;20.33;80.62;100543.85;1796591;78;21873;-96
2022/08/20 03:05:09;;;;;;;29.02;18.65;;;;;;;20.34;80.40;100547.66;1796114;77;20887;-96
2022/08/20 03:07:47;;;;;;;32.23;19.73;;;;;;;20.32;80.21;100533.70;1796590;78;20896;-96
2022/08/20 03:10:14;;;;;;;25.77;20.55;;;;;;;20.32;80.32;100544.36;1796502;80;20911;-95
2022/08/20 03:12:42;;;;;;;30.43;19.32;;;;;;;20.32;80.32;100540.36;1796473;78;20997;-96
2022/08/20 03:15:11;;;;;;;33.50;20.88;;;;;;;20.32;80.13;100536.84;1796163;78;21218;-96
2022/08/20 03:17:37;;;;;;;32.55;21.37;;;;;;;20.32;80.11;100536.84;1796274;80;20895;-96
2022/08/20 03:20:06;;;;;;;32.98;19.77;;;;;;;20.31;80.17;100544.50;1796378;78;20935;-95
2022/08/20 03:22:34;;;;;;;35.92;19.37;;;;;;;20.32;80.02;100539.50;1796658;78;20998;-95
2022/08/20 03:25:02;;;;;;;30.85;19.82;;;;;;;20.32;79.98;100551.48;1796661;78;20943;-94
2022/08/20 03:27:31;;;;;;;36.03;18.62;;;;;;;20.30;79.74;100547.67;1796792;78;21100;-95
2022/08/20 03:29:59;;;;;;;35.85;18.45;;;;;;;20.28;79.51;100551.81;1797278;78;20903;-96
2022/08/20 03:32:26;;;;;;;28.38;16.10;;;;;;;20.27;79.42;100551.95;1796890;80;20867;-95
2022/08/20 03:34:54;;;;;;;28.02;15.48;;;;;;;20.27;79.26;100555.95;1797186;80;20926;-96
2022/08/20 03:37:22;;;;;;;24.50;13.43;;;;;;;20.29;79.38;100560.62;1797059;80;20895;-96
2022/08/20 03:39:48;;;;;;;31.33;13.85;;;;;;;20.31;79.27;100558.64;1798625;77;21118;-95
2022/08/20 03:42:15;;;;;;;24.40;13.45;;;;;;;20.32;79.14;100558.14;1797445;80;20908;-95
2022/08/20 03:44:43;;;;;;;23.90;12.60;;;;;;;20.34;79.15;100560.98;1796595;80;20899;-94
2022/08/20 03:47:09;;;;;;;28.47;11.35;;;;;;;20.37;79.06;100560.69;1797677;77;20860;-96
2022/08/20 03:49:36;;;;;;;24.70;11.40;;;;;;;20.39;78.80;100564.53;1798846;77;20774;-95
2022/08/20 03:52:04;;;;;;;21.68;10.72;;;;;;;20.41;78.69;100570.52;1798168;77;21117;-95
2022/08/20 03:54:31;;;;;;;27.07;11.48;;;;;;;20.42;78.70;100568.20;1798681;77;20812;-96
2022/08/20 03:56:59;;;;;;;17.42;8.73;;;;;;;20.45;78.65;100569.20;1797578;77;21301;-96
2022/08/20 03:59:27;;;;;;;22.42;8.35;;;;;;;20.46;78.66;100574.39;1796703;80;20863;-96
2022/08/20 04:01:55;;;;;;;22.37;9.53;;;;;;;20.47;78.56;100576.55;1797225;80;20883;-95
2022/08/20 04:04:22;;;;;;;32.80;9.18;;;;;;;20.48;78.44;100573.73;1797423;78;21342;-96
2022/08/20 04:06:49;;;;;;;25.00;7.90;;;;;;;20.50;78.18;100582.91;1796715;77;21302;-96
2022/08/20 04:09:16;;;;;;;25.00;9.00;;;;;;;20.51;77.96;100579.24;1797051;80;20871;-95
2022/08/20 04:11:44;;;;;;;30.23;9.40;;;;;;;20.51;77.74;100581.91;1770364;80;20856;-96
2022/08/20 04:14:11;;;;;;;31.20;8.65;;;;;;;20.50;77.50;100579.75;1798348;80;20934;-95
2022/08/20 04:16:44;;;;;;;20.90;8.05;;;;;;;20.52;77.44;100578.73;1798868;79;21321;-95
2022/08/20 04:19:07;;;;;;;34.63;9.93;;;;;;;20.53;77.40;100585.25;1796387;80;20815;-93
2022/08/20 04:21:34;;;;;;;23.20;9.43;;;;;;;20.55;77.13;100581.11;1798817;78;20899;-95
2022/08/20 04:24:03;;;;;;;30.55;9.35;;;;;;;20.56;77.02;100578.77;1798227;77;20958;-95
2022/08/20 04:26:30;;;;;;;30.30;9.48;;;;;;;20.50;77.06;100565.09;1798583;77;20969;-94
2022/08/20 04:28:56;;;;;;;25.70;9.85;;;;;;;20.61;77.08;100581.81;1771965;79;21096;-96
2022/08/20 04:31:24;;;;;;;36.95;12.82;;;;;;;20.64;76.82;100577.52;1798776;77;20954;-94
2022/08/20 04:33:50;;;;;;;31.73;13.32;;;;;;;20.66;76.78;100586.20;1798898;80;20895;-92
2022/08/20 04:36:17;;;;;;;33.80;14.93;;;;;;;20.68;76.68;100581.05;1797995;78;20871;-94
2022/08/20 04:38:44;;;;;;;44.48;17.17;;;;;;;20.70;76.62;100587.55;1797533;78;20899;-95
2022/08/20 04:41:11;;;;;;;35.75;19.37;;;;;;;20.68;76.08;100574.38;1797524;78;21266;-95
2022/08/20 04:43:38;;;;;;;39.70;19.07;;;;;;;20.70;76.00;100579.05;1797565;78;20895;-96
2022/08/20 04:46:10;;;;;;;50.28;20.60;;;;;;;20.70;75.96;100576.89;1797310;78;20856;-96
2022/08/20 04:48:38;;;;;;;49.77;21.50;;;;;;;20.70;75.80;100583.05;1796866;78;21066;-95
2022/08/20 04:51:07;;;;;;;42.75;22.55;;;;;;;20.72;75.80;100588.23;1796949;78;20860;-94
2022/08/20 04:53:34;;;;;;;45.78;23.47;;;;;;;20.73;75.93;100583.73;1797447;77;21824;-96
2022/08/20 04:56:03;;;;;;;53.38;28.55;;;;;;;20.75;76.14;100576.41;1760054;81;20951;-95
2022/08/20 04:58:33;;;;;;;49.35;26.35;;;;;;;20.76;76.15;100577.56;1731047;81;20862;-94
2022/08/20 05:01:07;;;;;;;49.25;26.15;;;;;;;20.79;76.06;100573.77;1761489;79;20925;-94
2022/08/20 05:03:41;;;;;;;49.48;24.32;;;;;;;20.82;76.13;100567.61;1731529;80;20934;-94
2022/08/20 05:06:11;;;;;;;56.02;24.20;;;;;;;20.88;76.08;100573.64;1736619;81;20937;-94
2022/08/20 05:08:39;;;;;;;51.60;25.95;;;;;;;20.94;76.13;100568.14;1759034;81;20916;-94
2022/08/20 05:11:08;;;;;;;52.73;25.00;;;;;;;21.03;76.12;100567.67;1738495;81;20936;-94
2022/08/20 05:13:38;;;;;;;40.78;24.80;;;;;;;21.12;75.89;100581.38;1738374;81;20967;-95
2022/08/20 05:16:07;;;;;;;42.27;21.37;;;;;;;21.23;75.43;100574.91;1711006;82;20872;-93
2022/08/20 05:18:35;;;;;;;48.48;16.97;;;;;;;21.29;74.61;100575.59;1735849;80;21143;-95
2022/08/20 05:21:06;;;;;;;39.83;17.15;;;;;;;21.33;74.08;100572.95;1738418;81;20951;-95
2022/08/20 05:23:40;;;;;;;41.30;16.07;;;;;;;21.40;73.90;100571.28;1737786;82;20966;-95
2022/08/20 05:26:08;;;;;;;37.78;15.25;;;;;;;21.50;74.13;100568.02;1738818;81;20947;-92
2022/08/20 05:28:37;;;;;;;43.83;13.48;;;;;;;21.62;73.73;100561.02;1738477;81;21008;-94
2022/08/20 05:31:08;;;;;;;38.40;14.35;;;;;;;21.74;72.91;100567.68;1737371;81;21465;-94
2022/08/20 05:33:37;;;;;;;41.55;11.18;;;;;;;21.81;72.38;100560.70;1738063;82;20951;-96
2022/08/20 05:36:11;;;;;;;33.53;11.05;;;;;;;21.85;72.35;100566.02;1738605;81;20920;-93
2022/08/20 05:38:39;;;;;;;27.62;10.70;;;;;;;21.92;72.31;100569.70;1738008;81;20908;-93
2022/08/20 05:41:10;;;;;;;31.75;10.93;;;;;;;22.03;71.88;100573.02;1738644;81;20884;-93
2022/08/20 05:43:40;;;;;;;27.20;10.95;;;;;;;22.10;71.84;100570.86;1711059;82;20931;-94
2022/08/20 05:46:07;;;;;;;35.35;13.32;;;;;;;22.19;71.34;100568.16;1737311;81;20904;-93
2022/08/20 05:48:36;;;;;;;28.65;13.25;;;;;;;22.25;70.76;100556.33;1735149;80;20871;-94
2022/08/20 05:51:05;;;;;;;34.58;12.75;;;;;;;22.29;70.54;100564.34;1800527;79;20915;-95
2022/08/20 05:53:33;;;;;;;26.12;13.28;;;;;;;22.37;70.52;100565.33;1799990;78;21025;-93
2022/08/20 05:56:00;;;;;;;29.55;11.45;;;;;;;22.43;70.38;100569.99;1799573;78;21252;-92
2022/08/20 05:58:29;;;;;;;36.45;12.03;;;;;;;22.51;69.86;100563.30;1799199;78;21306;-92
2022/08/20 06:00:57;;;;;;;47.88;12.07;;;;;;;22.60;69.30;100563.60;1799229;79;20950;-94
2022/08/20 06:06:09;;;;;;;27.65;12.55;;;;;;;22.75;68.81;100571.75;1799645;78;21001;-94
2022/08/20 06:08:38;;;;;;;30.95;11.00;;;;;;;22.80;68.44;100567.22;1799508;78;20804;-95
2022/08/20 06:11:07;;;;;;;39.95;16.60;;;;;;;22.87;68.37;100563.66;1769053;79;21332;-95
2022/08/20 06:13:33;;;;;;;43.17;12.73;;;;;;;22.98;67.92;100555.76;1800265;79;20895;-94
2022/08/20 06:16:04;;;;;;;36.65;14.33;;;;;;;23.30;67.83;100557.95;1769035;79;20910;-93
2022/08/20 06:18:36;;;;;;;39.50;14.78;;;;;;;23.82;67.57;100551.10;1768944;79;20914;-93
2022/08/20 06:21:11;;;;;;;42.53;13.90;;;;;;;24.47;65.01;100556.33;1800985;79;21210;-93
2022/08/20 06:27:13;;;;;;;44.35;15.85;;;;;;;25.89;60.20;100543.33;1708007;79;20905;-96
2022/08/20 06:29:40;;;;;;;44.90;15.45;;;;;;;26.68;58.20;100543.57;1704723;84;20980;-95
2022/08/20 06:32:08;;;;;;;36.63;14.70;;;;;;;27.33;56.41;100550.75;1704530;82;20933;-94
2022/08/20 06:34:35;;;;;;;38.28;15.60;;;;;;;27.82;55.42;100550.08;1704666;83;21134;-96
2022/08/20 06:37:17;;;;;;;44.77;17.07;;;;;;;28.23;54.57;100555.25;1680010;84;21067;-91
2022/08/20 06:39:44;;;;;;;33.18;13.35;;;;;;;28.73;52.93;100550.70;1704747;82;20992;-93
2022/08/20 06:42:11;;;;;;;27.48;10.90;;;;;;;29.29;51.95;100547.86;1704940;82;20957;-94
2022/08/20 06:44:37;;;;;;;29.82;15.10;;;;;;;29.74;50.63;100549.95;1705304;81;20969;-93
2022/08/20 06:47:05;;;;;;;36.55;16.35;;;;;;;30.18;49.24;100549.16;1709519;80;21219;-96
2022/08/20 06:49:47;;;;;;;34.78;13.08;;;;;;;30.50;48.11;100548.00;1766380;81;20897;-96
2022/08/20 06:52:39;;;;;;;31.17;10.45;;;;;;;30.78;47.08;100548.00;1748708;80;21059;-93
2022/08/20 06:55:12;;;;;;;26.12;9.10;;;;;;;31.00;45.99;100543.48;1744153;81;20951;-96
2022/08/20 06:57:40;;;;;;;26.35;10.18;;;;;;;31.23;46.21;100542.20;1768481;79;20965;-93
2022/08/20 07:00:13;;;;;;;32.10;12.25;;;;;;;31.55;45.84;100542.80;1739306;80;21417;-94
2022/08/20 07:02:40;;;;;;;30.75;9.50;;;;;;;31.90;44.94;100543.89;1768531;80;20931;-95
2022/08/20 07:05:09;;;;;;;30.85;9.03;;;;;;;32.14;44.71;100537.97;1769274;81;20897;-94
2022/08/20 07:07:39;;;;;;;37.10;9.63;;;;;;;32.46;44.30;100536.21;1738823;81;20907;-96
2022/08/20 07:10:08;;;;;;;33.42;10.72;;;;;;;32.69;43.43;100537.56;1768789;80;21120;-95
2022/08/20 07:12:36;;;;;;;30.50;10.70;;;;;;;32.79;42.68;100536.41;1769529;80;21241;-94
2022/08/20 07:15:07;;;;;;;37.38;12.82;;;;;;;32.88;42.65;100538.19;1768708;80;20876;-93
2022/08/20 07:17:34;;;;;;;33.48;11.50;;;;;;;32.89;42.13;100543.92;1769650;80;20879;-95
2022/08/20 07:20:07;;;;;;;34.95;10.50;;;;;;;32.90;42.08;100543.39;1770074;79;20932;-91
2022/08/20 07:22:35;;;;;;;31.52;11.45;;;;;;;32.86;41.93;100544.93;1771243;78;20918;-91
2022/08/20 07:25:06;;;;;;;24.87;9.13;;;;;;;32.92;41.98;100548.05;1711207;82;21613;-94
2022/08/20 07:27:33;;;;;;;34.20;11.85;;;;;;;33.06;42.19;100548.06;1768824;81;20860;-95
2022/08/20 07:32:45;;;;;;;28.17;13.10;;;;;;;33.68;40.72;100546.45;1738373;81;20976;-92
2022/08/20 07:35:14;;;;;;;37.03;11.65;;;;;;;34.00;40.15;100546.16;1768223;81;20935;-92
2022/08/20 07:37:47;;;;;;;23.22;9.85;;;;;;;34.21;40.02;100543.75;1769445;80;21875;-93
2022/08/20 07:40:19;;;;;;;26.80;11.22;;;;;;;34.35;39.53;100535.52;1770668;81;20892;-91
2022/08/20 07:42:47;;;;;;;24.87;12.03;;;;;;;34.42;39.21;100533.97;1770895;80;20918;-91
2022/08/20 07:45:14;;;;;;;26.90;12.35;;;;;;;34.23;39.60;100537.52;1740775;81;20891;-93
2022/08/20 07:47:44;;;;;;;35.98;12.85;;;;;;;33.95;39.88;100539.28;1769416;81;20970;-91
2022/08/20 07:50:14;;;;;;;26.02;12.13;;;;;;;33.59;40.23;100541.42;1768916;81;22091;-92
2022/08/20 07:52:45;;;;;;;26.90;11.93;;;;;;;33.30;40.67;100547.42;1736283;81;21196;-91
2022/08/20 07:55:14;;;;;;;27.80;12.15;;;;;;;33.08;41.07;100544.57;1787534;80;20920;-94
2022/08/20 07:57:43;;;;;;;27.10;11.95;;;;;;;33.04;41.37;100545.58;1765716;81;20919;-89
2022/08/20 08:00:11;;;;;;;31.30;12.53;;;;;;;33.21;41.30;100547.53;1787787;80;20955;-94
2022/08/20 08:02:40;;;;;;;25.92;12.40;;;;;;;33.29;40.73;100542.25;1765556;81;21251;-93
2022/08/20 08:05:08;;;;;;;24.12;12.30;;;;;;;33.52;40.52;100552.16;1788036;80;20928;-93
2022/08/20 08:07:35;;;;;;;27.22;13.32;;;;;;;33.77;40.30;100547.69;1765375;81;20884;-93
2022/08/20 08:10:02;;;;;;;23.47;13.05;;;;;;;33.91;40.21;100551.73;1788205;80;20927;-92
2022/08/20 08:12:37;;;;;;;29.70;16.37;;;;;;;34.08;39.64;100546.80;1765680;81;21002;-93
2022/08/20 08:15:08;;;;;;;26.25;13.75;;;;;;;33.92;39.74;100553.91;1787987;80;21256;-91
2022/08/20 08:17:36;;;;;;;26.50;14.83;;;;;;;33.69;39.90;100549.48;1766054;81;20884;-92
2022/08/20 08:20:06;;;;;;;33.40;21.02;;;;;;;33.53;40.13;100551.06;1787971;80;20896;-92
2022/08/20 08:22:35;;;;;;;43.40;23.27;;;;;;;33.31;40.38;100546.38;1767322;80;20962;-91
2022/08/20 08:25:03;;;;;;;38.98;23.65;;;;;;;33.08;40.87;100543.75;1738064;80;20967;-93
2022/08/20 08:27:34;;;;;;;36.85;24.10;;;;;;;33.00;41.55;100542.23;1766369;81;21938;-91
2022/08/20 08:30:02;;;;;;;42.95;26.00;;;;;;;33.21;41.67;100536.12;1788355;80;20904;-91
2022/08/20 08:32:32;;;;;;;45.50;27.60;;;;;;;33.57;41.40;100534.55;1766371;81;20979;-91
2022/08/20 08:35:02;;;;;;;45.92;28.95;;;;;;;33.99;40.64;100551.84;1787223;80;20928;-94
2022/08/20 08:37:29;;;;;;;36.35;21.62;;;;;;;34.21;39.60;100543.75;1765868;81;21010;-94
2022/08/20 08:39:56;;;;;;;44.63;18.32;;;;;;;34.22;39.18;100544.88;1733799;81;21361;-91
2022/08/20 08:42:39;;;;;;;30.75;14.75;;;;;;;34.31;39.35;100540.33;1787773;80;20861;-93
2022/08/20 08:45:09;;;;;;;;;;;;;;;34.39;39.57;100533.09;1768574;81;20927;-94
2022/08/20 08:47:37;;;;;;;32.63;12.50;;;;;;;34.46;38.94;100534.58;1787979;80;20198;-93
2022/08/20 08:50:06;;;;;;;29.07;9.53;;;;;;;34.37;39.19;100527.08;1736157;81;21389;-94
2022/08/20 08:52:39;;;;;;;25.08;8.95;;;;;;;34.29;39.27;100527.54;1787733;80;21162;-92
2022/08/20 08:55:11;;;;;;;25.25;9.70;;;;;;;34.10;38.92;100522.88;1765777;81;20903;-91
2022/08/20 08:57:39;;;;;;;22.35;8.95;;;;;;;34.01;39.43;100534.73;1765767;81;20900;-91
2022/08/20 09:00:14;;;;;;;30.27;8.70;;;;;;;34.06;39.62;100533.43;1712107;81;20939;-92
2022/08/20 09:02:53;;;;;;;30.15;8.23;;;;;;;34.16;39.57;100523.27;1765664;81;20887;-91
2022/08/20 09:05:24;;;;;;;25.72;8.38;;;;;;;34.27;39.22;100522.34;1739121;80;21645;-89
2022/08/20 09:07:50;;;;;;;28.27;7.87;;;;;;;34.47;39.26;100521.77;1765314;81;20887;-91
2022/08/20 09:10:19;;;;;;;31.68;7.55;;;;;;;34.67;38.83;100518.50;1765673;81;21030;-90
2022/08/20 09:12:45;;;;;;;24.30;7.08;;;;;;;34.90;38.82;100524.20;1787190;80;20939;-91
2022/08/20 09:15:12;;;;;;;19.32;8.25;;;;;;;35.15;38.12;100519.59;1733243;82;20984;-92
2022/08/20 09:17:39;;;;;;;24.70;7.12;;;;;;;35.35;37.87;100526.30;1733357;81;21152;-92
2022/08/20 09:20:09;;;;;;;28.02;7.95;;;;;;;35.44;37.60;100524.73;1733559;81;20995;-92
2022/08/20 09:22:36;;;;;;;29.37;7.80;;;;;;;35.55;37.18;100525.09;1733588;82;20892;-92
2022/08/20 09:25:06;;;;;;;26.60;6.70;;;;;;;35.80;37.32;100527.80;1733429;81;20935;-93
2022/08/20 09:27:32;;;;;;;22.45;8.58;;;;;;;36.05;37.03;100527.94;1734304;80;20943;-92
2022/08/20 09:29:59;;;;;;;21.02;7.55;;;;;;;36.30;36.37;100523.73;1733995;81;21244;-93
2022/08/20 09:32:26;;;;;;;23.40;7.53;;;;;;;36.47;35.94;100515.34;1734232;82;20881;-94
2022/08/20 09:34:58;;;;;;;22.62;7.15;;;;;;;36.47;35.99;100516.71;1733435;81;20959;-94
2022/08/20 09:37:27;;;;;;;19.52;6.72;;;;;;;36.57;36.15;100525.48;1733693;81;21000;-95
2022/08/20 09:39:57;;;;;;;18.35;6.87;;;;;;;36.72;35.56;100527.74;1733714;82;21354;-93
2022/08/20 09:42:29;;;;;;;18.42;6.42;;;;;;;36.86;34.68;100529.97;1735847;80;21109;-92
2022/08/20 09:44:56;;;;;;;19.30;6.80;;;;;;;36.93;34.98;100526.42;1735943;78;20865;-91
2022/08/20 09:47:23;;;;;;;17.90;7.80;;;;;;;37.03;34.59;100529.73;1735776;78;20924;-94
2022/08/20 09:49:50;;;;;;;23.02;7.37;;;;;;;37.02;34.47;100528.92;1735846;80;20939;-94
2022/08/20 09:52:28;;;;;;;23.83;8.03;;;;;;;37.04;34.10;100526.74;1735337;81;20939;-93
2022/08/20 09:54:59;;;;;;;20.10;8.80;;;;;;;37.09;34.30;100526.77;1734566;82;21248;-91
2022/08/20 09:57:26;;;;;;;19.52;7.53;;;;;;;37.14;34.19;100524.59;1766032;81;20932;-92
2022/08/20 09:59:58;;;;;;;21.90;7.80;;;;;;;37.19;34.05;100525.14;1729202;82;20963;-94
2022/08/20 10:02:26;;;;;;;16.25;7.47;;;;;;;37.12;34.26;100522.12;1732822;81;20880;-92
2022/08/20 10:04:53;;;;;;;16.37;8.25;;;;;;;37.21;34.14;100525.69;1733481;82;21448;-92
2022/08/20 10:07:19;;;;;;;13.85;6.55;;;;;;;37.31;33.86;100528.44;1733470;82;21849;-94
2022/08/20 10:09:47;;;;;;;20.30;7.58;;;;;;;37.35;33.35;100518.57;1733146;81;20947;-92
2022/08/20 10:12:14;;;;;;;19.20;6.45;;;;;;;37.39;33.43;100518.30;1733076;81;20904;-93
2022/08/20 10:14:40;;;;;;;16.60;7.70;;;;;;;37.45;33.57;100510.93;1733266;82;20940;-92
2022/08/20 10:17:07;;;;;;;19.87;8.10;;;;;;;37.51;33.30;100517.49;1733581;81;21373;-91
2022/08/20 10:19:34;;;;;;;23.57;6.62;;;;;;;37.53;32.71;100519.93;1733725;81;22963;-94
2022/08/20 10:22:01;;;;;;;21.00;7.62;;;;;;;37.54;33.19;100512.02;1734946;82;21049;-91
2022/08/20 10:24:28;;;;;;;17.52;6.72;;;;;;;37.61;33.02;100510.40;1735656;78;20920;-93
2022/08/20 10:26:57;;;;;;;30.10;8.73;;;;;;;37.68;32.86;100509.00;1736162;81;20983;-93
2022/08/20 10:29:25;;;;;;;21.50;7.83;;;;;;;37.74;32.97;100505.17;1734405;82;20924;-93
2022/08/20 10:31:52;;;;;;;27.67;7.95;;;;;;;37.70;33.30;100499.16;1733930;82;21304;-92
2022/08/20 10:34:19;;;;;;;18.73;6.47;;;;;;;37.68;32.85;100504.90;1733509;81;21483;-96
2022/08/20 10:36:46;;;;;;;17.62;7.00;;;;;;;37.65;33.00;100504.09;1734167;81;20951;-94
2022/08/20 10:39:12;;;;;;;24.87;6.53;;;;;;;37.69;32.74;100503.81;1734994;82;20987;-91
2022/08/20 10:41:40;;;;;;;19.20;6.60;;;;;;;37.69;32.96;100503.01;1735934;81;20931;-92
2022/08/20 10:44:06;;;;;;;24.77;8.28;;;;;;;37.72;32.97;100501.89;1735016;81;21243;-88
2022/08/20 10:46:33;;;;;;;24.50;7.47;;;;;;;37.72;32.84;100495.05;1734973;82;21393;-90
2022/08/20 10:48:59;;;;;;;28.95;7.67;;;;;;;37.70;33.07;100493.69;1735937;82;20983;-88
2022/08/20 10:51:26;;;;;;;25.02;6.58;;;;;;;37.71;32.42;100492.60;1735964;78;20951;-88
2022/08/20 10:53:53;;;;;;;24.98;8.10;;;;;;;37.69;32.42;100492.88;1734584;80;21377;-91
2022/08/20 10:56:19;;;;;;;26.68;7.75;;;;;;;37.63;33.10;100487.68;1733272;81;21130;-90
2022/08/20 10:58:46;;;;;;;23.95;8.05;;;;;;;37.54;33.14;100487.38;1733533;81;21397;-92
2022/08/20 11:01:12;;;;;;;29.20;7.45;;;;;;;37.46;33.33;100485.19;1733453;82;20927;-90
2022/08/20 11:03:39;;;;;;;29.95;7.40;;;;;;;37.50;33.09;100487.66;1704469;81;21062;-91
2022/08/20 11:06:07;;;;;;;26.62;7.58;;;;;;;37.49;32.79;100479.19;1704660;82;20931;-91
2022/08/20 11:08:33;;;;;;;21.57;7.17;;;;;;;37.38;32.74;100475.64;1765375;80;21146;-92
2022/08/20 11:11:00;;;;;;;24.45;7.62;;;;;;;37.38;33.50;100477.00;1733067;82;20900;-92
2022/08/20 11:15:59;;;;;;;27.80;8.15;;;;;;;37.53;32.89;100480.25;1855477;77;23236;-90
2022/08/20 11:18:25;;;;;;;33.73;8.58;;;;;;;37.42;33.05;100478.10;1791958;78;20907;-91
2022/08/20 11:20:52;;;;;;;29.05;8.00;;;;;;;37.33;33.16;100472.88;1793209;78;21451;-90
2022/08/20 11:23:19;;;;;;;27.07;8.05;;;;;;;37.21;33.25;100473.72;1825356;78;20836;-89
2022/08/20 11:25:47;;;;;;;31.35;7.95;;;;;;;37.10;32.90;100473.70;1825739;78;20924;-86
2022/08/20 11:28:14;;;;;;;24.02;6.80;;;;;;;36.94;33.03;100459.73;1820286;78;20876;-88
2022/08/20 11:30:47;;;;;;;26.35;7.55;;;;;;;36.75;33.81;100463.52;1825502;77;20864;-93
2022/08/20 11:33:16;;;;;;;20.23;6.33;;;;;;;36.66;33.52;100456.42;1825435;77;21255;-94
2022/08/20 11:35:43;;;;;;;21.20;6.47;;;;;;;36.62;34.12;100452.58;1792873;77;21001;-95